createdAt,value
2018-07-10T00:00:09.152Z,0.00
2018-07-10T00:01:09.150Z,0.00
2018-07-10T00:02:09.153Z,0.00
2018-07-10T00:03:09.151Z,0.00
2018-07-10T00:04:09.155Z,0.00
2018-07-10T00:05:09.151Z,0.00
2018-07-10T00:06:09.152Z,0.00
2018-07-10T00:07:09.155Z,0.00
2018-07-10T00:08:09.205Z,0.00
2018-07-10T00:09:09.150Z,0.00
2018-07-10T00:10:09.153Z,0.00
2018-07-10T00:11:09.154Z,0.00
2018-07-10T00:12:09.203Z,0.00
2018-07-10T00:13:09.158Z,0.00
2018-07-10T00:14:09.151Z,0.00
2018-07-10T00:15:09.154Z,0.00
2018-07-10T00:16:09.152Z,0.00
2018-07-10T00:17:09.161Z,0.00
2018-07-10T00:18:09.155Z,0.00
2018-07-10T00:19:09.155Z,0.00
2018-07-10T00:20:09.160Z,0.00
2018-07-10T00:21:09.157Z,0.00
2018-07-10T00:22:09.152Z,0.00
2018-07-10T00:23:09.161Z,0.00
2018-07-10T00:24:09.157Z,0.00
2018-07-10T00:25:09.158Z,0.00
2018-07-10T00:26:09.157Z,0.00
2018-07-10T00:27:09.157Z,0.00
2018-07-10T00:28:09.158Z,0.00
2018-07-10T00:29:09.158Z,0.00
2018-07-10T00:30:09.164Z,0.00
2018-07-10T00:31:09.158Z,0.00
2018-07-10T00:32:09.158Z,0.00
2018-07-10T00:33:09.159Z,0.00
2018-07-10T00:34:09.158Z,0.00
2018-07-10T00:35:09.159Z,0.00
2018-07-10T00:36:09.159Z,0.00
2018-07-10T00:37:09.159Z,0.00
2018-07-10T00:38:09.159Z,0.00
2018-07-10T00:39:09.167Z,0.00
2018-07-10T00:40:09.175Z,0.00
2018-07-10T00:41:09.156Z,0.00
2018-07-10T00:42:09.163Z,0.00
2018-07-10T00:43:09.157Z,0.00
2018-07-10T00:44:09.158Z,0.00
2018-07-10T00:45:09.160Z,0.00
2018-07-10T00:46:09.160Z,0.00
2018-07-10T00:47:09.158Z,0.00
2018-07-10T00:48:09.157Z,0.00
2018-07-10T00:49:09.160Z,0.00
2018-07-10T00:50:09.157Z,0.00
2018-07-10T00:51:09.157Z,0.00
2018-07-10T00:52:09.156Z,0.00
2018-07-10T00:53:09.162Z,0.00
2018-07-10T00:54:09.156Z,0.00
2018-07-10T00:55:09.157Z,0.00
2018-07-10T00:56:09.155Z,0.00
2018-07-10T00:57:09.157Z,0.00
2018-07-10T00:58:09.157Z,0.00
2018-07-10T00:59:09.150Z,0.00
2018-07-10T01:00:09.153Z,0.00
2018-07-10T01:01:09.158Z,0.00
2018-07-10T01:02:09.155Z,0.00
2018-07-10T01:03:09.154Z,0.00
2018-07-10T01:04:09.155Z,0.00
2018-07-10T01:05:09.152Z,0.00
2018-07-10T01:06:09.154Z,0.00
2018-07-10T01:07:09.154Z,0.00
2018-07-10T01:08:09.156Z,0.00
2018-07-10T01:09:09.162Z,0.00
2018-07-10T01:10:09.151Z,0.00
2018-07-10T01:11:09.149Z,0.00
2018-07-10T01:12:09.154Z,0.00
2018-07-10T01:13:09.154Z,0.00
2018-07-10T01:14:09.155Z,0.00
2018-07-10T01:15:09.157Z,0.00
2018-07-10T01:16:09.153Z,0.00
2018-07-10T01:17:09.153Z,0.00
2018-07-10T01:18:09.161Z,0.00
2018-07-10T01:19:09.163Z,0.00
2018-07-10T01:20:09.151Z,0.00
2018-07-10T01:21:09.148Z,0.00
2018-07-10T01:22:09.150Z,0.00
2018-07-10T01:23:09.154Z,0.00
2018-07-10T01:24:09.152Z,0.00
2018-07-10T01:25:09.148Z,0.00
2018-07-10T01:26:09.151Z,0.00
2018-07-10T01:27:09.151Z,0.00
2018-07-10T01:28:09.149Z,0.00
2018-07-10T01:29:09.146Z,0.00
2018-07-10T01:30:09.149Z,0.00
2018-07-10T01:31:09.150Z,0.00
2018-07-10T01:32:09.150Z,0.00
2018-07-10T01:33:09.149Z,0.00
2018-07-10T01:34:09.149Z,0.00
2018-07-10T01:35:09.149Z,0.00
2018-07-10T01:36:09.149Z,0.00
2018-07-10T01:37:09.150Z,0.00
2018-07-10T01:38:09.151Z,0.00
2018-07-10T01:39:09.149Z,0.00
2018-07-10T01:40:09.149Z,0.00
2018-07-10T01:41:09.148Z,0.00
2018-07-10T01:42:09.149Z,0.00
2018-07-10T01:43:09.148Z,0.00
2018-07-10T01:44:09.145Z,0.00
2018-07-10T01:45:09.147Z,0.00
2018-07-10T01:46:09.147Z,0.00
2018-07-10T01:47:09.149Z,0.00
2018-07-10T01:48:09.149Z,0.00
2018-07-10T01:49:09.156Z,0.00
2018-07-10T01:50:09.147Z,0.00
2018-07-10T01:51:09.151Z,0.00
2018-07-10T01:52:09.148Z,0.00
2018-07-10T01:53:09.146Z,0.00
2018-07-10T01:54:09.144Z,0.00
2018-07-10T01:55:09.148Z,0.00
2018-07-10T01:56:09.149Z,0.00
2018-07-10T01:57:09.148Z,0.00
2018-07-10T01:58:09.149Z,0.00
2018-07-10T01:59:09.146Z,0.00
2018-07-10T02:00:09.147Z,0.00
2018-07-10T02:01:09.152Z,0.00
2018-07-10T02:02:09.145Z,0.00
2018-07-10T02:03:09.151Z,0.00
2018-07-10T02:04:09.151Z,0.00
2018-07-10T02:05:09.148Z,0.00
2018-07-10T02:06:09.148Z,0.00
2018-07-10T02:07:09.150Z,0.00
2018-07-10T02:08:09.150Z,0.00
2018-07-10T02:09:09.150Z,0.00
2018-07-10T02:10:09.148Z,0.00
2018-07-10T02:11:09.158Z,0.00
2018-07-10T02:12:09.148Z,0.00
2018-07-10T02:13:09.149Z,0.00
2018-07-10T02:14:09.195Z,0.00
2018-07-10T02:15:09.165Z,0.00
2018-07-10T02:16:09.157Z,0.00
2018-07-10T02:17:09.148Z,0.00
2018-07-10T02:18:09.144Z,4.00
2018-07-10T02:19:09.149Z,4.00
2018-07-10T02:20:09.149Z,4.00
2018-07-10T02:21:09.147Z,0.00
2018-07-10T02:22:09.148Z,4.00
2018-07-10T02:23:09.154Z,4.00
2018-07-10T02:24:09.155Z,4.00
2018-07-10T02:25:09.148Z,4.00
2018-07-10T02:26:09.144Z,4.00
2018-07-10T02:27:09.151Z,8.00
2018-07-10T02:28:09.148Z,4.00
2018-07-10T02:29:09.147Z,8.00
2018-07-10T02:30:09.150Z,8.00
2018-07-10T02:31:09.148Z,8.00
2018-07-10T02:32:09.158Z,8.00
2018-07-10T02:33:09.148Z,12.00
2018-07-10T02:34:09.148Z,12.00
2018-07-10T02:35:09.146Z,16.00
2018-07-10T02:36:09.151Z,16.00
2018-07-10T02:37:09.147Z,20.00
2018-07-10T02:38:09.147Z,16.00
2018-07-10T02:39:09.152Z,20.00
2018-07-10T02:40:09.148Z,20.00
2018-07-10T02:41:09.147Z,20.00
2018-07-10T02:42:09.145Z,20.00
2018-07-10T02:43:09.145Z,24.00
2018-07-10T02:44:09.141Z,28.00
2018-07-10T02:45:09.143Z,32.00
2018-07-10T02:46:09.147Z,32.00
2018-07-10T02:47:09.142Z,32.00
2018-07-10T02:48:09.140Z,36.00
2018-07-10T02:49:09.145Z,40.00
2018-07-10T02:50:09.144Z,40.00
2018-07-10T02:51:09.141Z,40.00
2018-07-10T02:52:09.144Z,44.00
2018-07-10T02:53:09.147Z,48.00
2018-07-10T02:54:09.143Z,48.00
2018-07-10T02:55:09.160Z,52.00
2018-07-10T02:56:09.141Z,56.00
2018-07-10T02:57:09.142Z,56.00
2018-07-10T02:58:09.134Z,56.00
2018-07-10T02:59:09.138Z,60.00
2018-07-10T03:00:09.143Z,56.00
2018-07-10T03:01:09.140Z,56.00
2018-07-10T03:02:09.139Z,56.00
2018-07-10T03:03:09.140Z,56.00
2018-07-10T03:04:09.140Z,56.00
2018-07-10T03:05:09.138Z,60.00
2018-07-10T03:06:09.146Z,64.00
2018-07-10T03:07:09.138Z,64.00
2018-07-10T03:08:09.137Z,64.00
2018-07-10T03:09:09.140Z,68.00
2018-07-10T03:10:09.156Z,76.00
2018-07-10T03:11:09.164Z,84.00
2018-07-10T03:12:09.135Z,88.00
2018-07-10T03:13:09.130Z,96.00
2018-07-10T03:14:09.131Z,100.00
2018-07-10T03:15:09.137Z,104.00
2018-07-10T03:16:09.132Z,112.00
2018-07-10T03:17:09.133Z,116.00
2018-07-10T03:18:09.130Z,120.00
2018-07-10T03:19:09.130Z,120.00
2018-07-10T03:20:09.131Z,120.00
2018-07-10T03:21:09.130Z,120.00
2018-07-10T03:22:09.138Z,120.00
2018-07-10T03:23:09.129Z,124.00
2018-07-10T03:24:09.129Z,128.00
2018-07-10T03:25:09.127Z,136.00
2018-07-10T03:26:09.127Z,140.00
2018-07-10T03:27:09.121Z,140.00
2018-07-10T03:28:09.124Z,144.00
2018-07-10T03:29:09.123Z,144.00
2018-07-10T03:30:09.121Z,144.00
2018-07-10T03:31:09.122Z,148.00
2018-07-10T03:32:09.123Z,152.00
2018-07-10T03:33:09.120Z,164.00
2018-07-10T03:34:09.119Z,176.00
2018-07-10T03:35:09.121Z,204.00
2018-07-10T03:36:09.118Z,232.00
2018-07-10T03:37:09.119Z,236.00
2018-07-10T03:38:09.116Z,244.00
2018-07-10T03:39:09.114Z,284.00
2018-07-10T03:40:09.114Z,308.00
2018-07-10T03:41:09.113Z,348.00
2018-07-10T03:42:09.113Z,348.00
2018-07-10T03:43:09.110Z,324.00
2018-07-10T03:44:09.111Z,316.00
2018-07-10T03:45:09.112Z,308.00
2018-07-10T03:46:09.110Z,296.00
2018-07-10T03:47:09.109Z,280.00
2018-07-10T03:48:09.114Z,268.00
2018-07-10T03:49:09.111Z,292.00
2018-07-10T03:50:09.102Z,340.00
2018-07-10T03:51:09.105Z,360.00
2018-07-10T03:52:09.105Z,388.00
2018-07-10T03:53:09.104Z,412.00
2018-07-10T03:54:09.101Z,428.00
2018-07-10T03:55:09.101Z,440.00
2018-07-10T03:56:09.102Z,476.00
2018-07-10T03:57:09.101Z,588.00
2018-07-10T03:58:09.099Z,724.00
2018-07-10T03:59:09.104Z,788.00
2018-07-10T04:00:09.098Z,728.00
2018-07-10T04:01:09.100Z,704.00
2018-07-10T04:02:09.098Z,736.00
2018-07-10T04:03:09.107Z,756.00
2018-07-10T04:04:09.096Z,724.00
2018-07-10T04:05:09.097Z,692.00
2018-07-10T04:06:09.094Z,648.00
2018-07-10T04:07:09.097Z,640.00
2018-07-10T04:08:09.089Z,632.00
2018-07-10T04:09:09.116Z,632.00
2018-07-10T04:10:09.093Z,660.00
2018-07-10T04:11:09.092Z,700.00
2018-07-10T04:12:09.093Z,736.00
2018-07-10T04:13:09.090Z,752.00
2018-07-10T04:14:09.088Z,764.00
2018-07-10T04:15:09.089Z,748.00
2018-07-10T04:16:09.090Z,740.00
2018-07-10T04:17:09.086Z,712.00
2018-07-10T04:18:09.085Z,712.00
2018-07-10T04:19:09.084Z,736.00
2018-07-10T04:20:09.082Z,776.00
2018-07-10T04:21:09.084Z,832.00
2018-07-10T04:22:09.081Z,860.00
2018-07-10T04:23:09.080Z,844.00
2018-07-10T04:24:09.084Z,836.00
2018-07-10T04:25:09.084Z,828.00
2018-07-10T04:26:09.084Z,824.00
2018-07-10T04:27:09.080Z,844.00
2018-07-10T04:28:09.078Z,856.00
2018-07-10T04:29:09.079Z,852.00
2018-07-10T04:30:09.081Z,872.00
2018-07-10T04:31:09.085Z,900.00
2018-07-10T04:32:09.077Z,944.00
2018-07-10T04:33:09.075Z,1008.00
2018-07-10T04:34:09.075Z,1100.00
2018-07-10T04:35:09.074Z,1188.00
2018-07-10T04:36:09.071Z,1252.00
2018-07-10T04:37:09.074Z,1328.00
2018-07-10T04:38:09.072Z,1428.00
2018-07-10T04:39:09.072Z,1508.00
2018-07-10T04:40:09.074Z,1528.00
2018-07-10T04:41:09.071Z,1520.00
2018-07-10T04:42:09.070Z,1488.00
2018-07-10T04:43:09.068Z,1428.00
2018-07-10T04:44:09.075Z,1376.00
2018-07-10T04:45:09.105Z,1388.00
2018-07-10T04:46:09.064Z,1448.00
2018-07-10T04:47:09.067Z,1528.00
2018-07-10T04:48:09.068Z,1596.00
2018-07-10T04:49:09.164Z,1704.00
2018-07-10T04:50:09.067Z,1828.00
2018-07-10T04:51:09.068Z,1960.00
2018-07-10T04:52:09.063Z,2024.00
2018-07-10T04:53:09.064Z,2084.00
2018-07-10T04:54:09.060Z,2200.00
2018-07-10T04:55:09.060Z,2376.00
2018-07-10T04:56:09.062Z,2500.00
2018-07-10T04:57:09.059Z,2616.00
2018-07-10T04:58:09.064Z,2680.00
2018-07-10T04:59:09.058Z,2636.00
2018-07-10T05:00:09.060Z,2520.00
2018-07-10T05:01:09.057Z,2380.00
2018-07-10T05:02:09.057Z,2232.00
2018-07-10T05:03:09.056Z,2156.00
2018-07-10T05:04:09.060Z,2092.00
2018-07-10T05:05:09.055Z,2064.00
2018-07-10T05:06:09.057Z,2128.00
2018-07-10T05:07:09.061Z,2252.00
2018-07-10T05:08:09.053Z,2376.00
2018-07-10T05:09:09.052Z,2536.00
2018-07-10T05:10:09.055Z,2624.00
2018-07-10T05:11:09.052Z,2704.00
2018-07-10T05:12:09.154Z,2812.00
2018-07-10T05:13:09.050Z,3028.00
2018-07-10T05:14:09.050Z,3084.00
2018-07-10T05:15:09.050Z,3216.00
2018-07-10T05:16:09.080Z,3300.00
2018-07-10T05:17:09.045Z,3316.00
2018-07-10T05:18:09.051Z,3400.00
2018-07-10T05:19:09.049Z,3568.00
2018-07-10T05:20:09.049Z,3628.00
2018-07-10T05:21:09.048Z,3648.00
2018-07-10T05:22:09.050Z,3476.00
2018-07-10T05:23:09.120Z,3332.00
2018-07-10T05:24:09.049Z,3432.00
2018-07-10T05:25:09.047Z,3368.00
2018-07-10T05:26:09.053Z,3292.00
2018-07-10T05:27:09.040Z,3396.00
2018-07-10T05:28:09.046Z,3308.00
2018-07-10T05:29:09.124Z,3188.00
2018-07-10T05:30:09.044Z,3152.00
2018-07-10T05:31:09.044Z,3236.00
2018-07-10T05:32:09.043Z,3240.00
2018-07-10T05:33:09.040Z,3404.00
2018-07-10T05:34:09.043Z,3628.00
2018-07-10T05:35:09.042Z,3860.00
2018-07-10T05:36:09.040Z,3824.00
2018-07-10T05:37:09.085Z,3804.00
2018-07-10T05:38:09.042Z,4044.00
2018-07-10T05:39:09.039Z,4516.00
2018-07-10T05:40:09.042Z,5028.00
2018-07-10T05:41:09.048Z,5084.00
2018-07-10T05:42:09.040Z,4624.00
2018-07-10T05:43:09.036Z,4292.00
2018-07-10T05:44:09.038Z,3856.00
2018-07-10T05:45:09.039Z,3624.00
2018-07-10T05:46:09.036Z,3716.00
2018-07-10T05:47:09.036Z,3880.00
2018-07-10T05:48:09.038Z,3736.00
2018-07-10T05:49:09.042Z,3404.00
2018-07-10T05:50:09.038Z,3188.00
2018-07-10T05:51:09.042Z,3148.00
2018-07-10T05:52:09.084Z,3016.00
2018-07-10T05:53:09.038Z,2800.00
2018-07-10T05:54:09.037Z,2644.00
2018-07-10T05:55:09.041Z,2496.00
2018-07-10T05:56:09.047Z,2356.00
2018-07-10T05:57:09.042Z,2264.00
2018-07-10T05:58:09.037Z,2232.00
2018-07-10T05:59:09.038Z,2316.00
2018-07-10T06:00:09.039Z,2560.00
2018-07-10T06:01:09.034Z,2972.00
2018-07-10T06:02:09.037Z,3360.00
2018-07-10T06:03:09.038Z,3552.00
2018-07-10T06:04:09.035Z,3752.00
2018-07-10T06:05:09.040Z,3864.00
2018-07-10T06:06:09.038Z,3972.00
2018-07-10T06:07:09.033Z,3948.00
2018-07-10T06:08:09.035Z,3968.00
2018-07-10T06:09:09.040Z,4088.00
2018-07-10T06:10:09.061Z,4172.00
2018-07-10T06:11:09.045Z,4224.00
2018-07-10T06:12:09.033Z,4244.00
2018-07-10T06:13:09.038Z,4352.00
2018-07-10T06:14:09.103Z,4516.00
2018-07-10T06:15:09.037Z,4592.00
2018-07-10T06:16:09.087Z,4652.00
2018-07-10T06:17:09.038Z,4736.00
2018-07-10T06:18:09.036Z,4896.00
2018-07-10T06:19:09.037Z,4892.00
2018-07-10T06:20:09.037Z,4836.00
2018-07-10T06:21:09.037Z,4728.00
2018-07-10T06:22:09.038Z,4744.00
2018-07-10T06:23:09.038Z,4792.00
2018-07-10T06:24:09.042Z,4580.00
2018-07-10T06:25:09.038Z,4356.00
2018-07-10T06:26:09.045Z,4420.00
2018-07-10T06:27:09.039Z,4512.00
2018-07-10T06:28:09.040Z,4928.00
2018-07-10T06:29:09.038Z,5436.00
2018-07-10T06:30:09.041Z,5892.00
2018-07-10T06:31:09.040Z,5992.00
2018-07-10T06:32:09.035Z,6104.00
2018-07-10T06:33:09.045Z,6392.00
2018-07-10T06:34:09.041Z,6704.00
2018-07-10T06:35:09.041Z,7136.00
2018-07-10T06:36:09.042Z,7364.00
2018-07-10T06:37:09.040Z,7580.00
2018-07-10T06:38:09.041Z,7408.00
2018-07-10T06:39:09.046Z,7368.00
2018-07-10T06:40:09.045Z,7520.00
2018-07-10T06:41:09.045Z,7932.00
2018-07-10T06:42:09.049Z,8336.00
2018-07-10T06:43:09.045Z,8664.00
2018-07-10T06:44:09.045Z,8856.00
2018-07-10T06:45:09.048Z,9316.00
2018-07-10T06:46:09.046Z,10140.00
2018-07-10T06:47:09.046Z,10892.00
2018-07-10T06:48:09.051Z,11696.00
2018-07-10T06:49:09.048Z,12624.00
2018-07-10T06:50:09.047Z,13588.00
2018-07-10T06:51:09.052Z,16672.00
2018-07-10T06:52:09.052Z,20704.00
2018-07-10T06:53:09.406Z,22592.00
2018-07-10T06:54:09.051Z,17536.00
2018-07-10T06:55:09.051Z,17568.00
2018-07-10T06:56:09.052Z,15772.00
2018-07-10T06:57:09.057Z,16384.00
2018-07-10T06:58:09.055Z,15932.00
2018-07-10T06:59:09.087Z,17632.00
2018-07-10T07:00:09.062Z,67136.00
2018-07-10T07:01:09.058Z,64960.00
2018-07-10T07:02:09.065Z,61728.00
2018-07-10T07:03:09.106Z,60800.00
2018-07-10T07:04:09.065Z,28992.00
2018-07-10T07:05:09.064Z,28384.00
2018-07-10T07:06:09.066Z,31840.00
2018-07-10T07:07:09.070Z,36320.00
2018-07-10T07:08:09.073Z,57600.00
2018-07-10T07:09:09.073Z,26784.00
2018-07-10T07:10:09.074Z,33568.00
2018-07-10T07:11:09.076Z,21536.00
2018-07-10T07:12:09.081Z,32704.00
2018-07-10T07:13:09.089Z,18496.00
2018-07-10T07:14:09.092Z,19776.00
2018-07-10T07:15:09.088Z,14572.00
2018-07-10T07:16:09.091Z,21056.00
2018-07-10T07:17:09.095Z,48288.00
2018-07-10T07:18:09.102Z,50560.00
2018-07-10T07:19:09.103Z,51584.00
2018-07-10T07:20:09.102Z,67456.00
2018-07-10T07:21:09.106Z,65152.00
2018-07-10T07:22:09.116Z,61728.00
2018-07-10T07:23:09.116Z,50368.00
2018-07-10T07:24:09.114Z,20544.00
2018-07-10T07:25:09.120Z,9184.00
2018-07-10T07:26:09.122Z,5616.00
2018-07-10T07:27:09.126Z,4688.00
2018-07-10T07:28:09.130Z,4632.00
2018-07-10T07:29:09.133Z,4908.00
2018-07-10T07:30:09.136Z,5676.00
2018-07-10T07:31:09.140Z,6880.00
2018-07-10T07:32:09.145Z,7840.00
2018-07-10T07:33:09.149Z,7728.00
2018-07-10T07:34:09.331Z,9376.00
2018-07-10T07:35:09.157Z,13116.00
2018-07-10T07:36:09.160Z,26112.00
2018-07-10T07:37:09.160Z,64736.00
2018-07-10T07:38:09.164Z,73792.00
2018-07-10T07:39:09.167Z,78624.00
2018-07-10T07:40:09.177Z,78496.00
2018-07-10T07:41:09.180Z,74848.00
2018-07-10T07:42:09.176Z,69472.00
2018-07-10T07:43:09.181Z,65888.00
2018-07-10T07:44:09.262Z,65120.00
2018-07-10T07:45:09.188Z,62880.00
2018-07-10T07:46:09.193Z,61056.00
2018-07-10T07:47:09.204Z,66496.00
2018-07-10T07:48:09.206Z,56320.00
2018-07-10T07:49:09.207Z,68448.00
2018-07-10T07:50:09.215Z,66016.00
2018-07-10T07:51:09.216Z,62752.00
2018-07-10T07:52:09.221Z,67488.00
2018-07-10T07:53:09.226Z,73792.00
2018-07-10T07:54:09.231Z,74912.00
2018-07-10T07:55:09.237Z,73696.00
2018-07-10T07:56:09.244Z,70912.00
2018-07-10T07:57:09.250Z,68576.00
2018-07-10T07:58:09.254Z,68960.00
2018-07-10T07:59:09.262Z,70016.00
2018-07-10T08:00:09.269Z,70208.00
2018-07-10T08:01:09.272Z,72544.00
2018-07-10T08:02:09.281Z,75712.00
2018-07-10T08:03:09.288Z,73248.00
2018-07-10T08:04:09.293Z,68672.00
2018-07-10T08:05:09.299Z,68448.00
2018-07-10T08:06:09.307Z,72768.00
2018-07-10T08:07:09.313Z,72896.00
2018-07-10T08:08:09.319Z,71776.00
2018-07-10T08:09:09.329Z,14436.00
2018-07-10T08:10:09.334Z,78720.00
2018-07-10T08:11:09.338Z,80768.00
2018-07-10T08:12:09.345Z,80800.00
2018-07-10T08:13:09.436Z,81472.00
2018-07-10T08:14:09.367Z,65920.00
2018-07-10T08:15:09.369Z,84736.00
2018-07-10T08:16:09.380Z,74176.00
2018-07-10T08:17:09.386Z,57312.00
2018-07-10T08:18:09.391Z,68672.00
2018-07-10T08:19:09.424Z,86272.00
2018-07-10T08:20:09.408Z,84608.00
2018-07-10T08:21:09.416Z,85248.00
2018-07-10T08:22:09.422Z,86848.00
2018-07-10T08:23:09.438Z,76992.00
2018-07-10T08:24:09.442Z,80608.00
2018-07-10T08:25:09.449Z,55904.00
2018-07-10T08:26:09.456Z,16960.00
2018-07-10T08:27:09.476Z,14492.00
2018-07-10T08:28:09.470Z,23264.00
2018-07-10T08:29:09.481Z,24320.00
2018-07-10T08:30:09.488Z,39936.00
2018-07-10T08:31:09.497Z,51680.00
2018-07-10T08:32:09.504Z,42528.00
2018-07-10T08:33:09.512Z,58400.00
2018-07-10T08:34:09.520Z,24320.00
2018-07-10T08:35:09.526Z,14872.00
2018-07-10T08:36:09.536Z,11972.00
2018-07-10T08:37:09.543Z,10892.00
2018-07-10T08:38:09.549Z,10816.00
2018-07-10T08:39:09.560Z,10328.00
2018-07-10T08:40:09.564Z,10684.00
2018-07-10T08:41:09.572Z,13800.00
2018-07-10T08:42:09.577Z,14444.00
2018-07-10T08:43:09.643Z,17440.00
2018-07-10T08:44:09.592Z,18656.00
2018-07-10T08:45:09.598Z,12936.00
2018-07-10T08:46:09.605Z,10732.00
2018-07-10T08:47:09.611Z,10092.00
2018-07-10T08:48:09.622Z,10456.00
2018-07-10T08:49:09.623Z,10908.00
2018-07-10T08:50:09.626Z,12524.00
2018-07-10T08:51:09.631Z,13572.00
2018-07-10T08:52:09.636Z,48512.00
2018-07-10T08:53:09.642Z,18752.00
2018-07-10T08:54:09.647Z,19744.00
2018-07-10T08:55:09.652Z,35040.00
2018-07-10T08:56:09.656Z,29344.00
2018-07-10T08:57:09.663Z,26752.00
2018-07-10T08:58:09.665Z,23712.00
2018-07-10T08:59:09.673Z,30624.00
2018-07-10T09:00:09.679Z,17504.00
2018-07-10T09:01:09.682Z,16704.00
2018-07-10T09:02:09.690Z,21760.00
2018-07-10T09:03:09.693Z,16896.00
2018-07-10T09:04:09.697Z,17280.00
2018-07-10T09:05:09.705Z,16352.00
2018-07-10T09:06:09.709Z,15692.00
2018-07-10T09:07:09.718Z,16928.00
2018-07-10T09:08:09.725Z,16928.00
2018-07-10T09:09:09.718Z,16704.00
2018-07-10T09:10:09.728Z,16288.00
2018-07-10T09:11:09.735Z,15356.00
2018-07-10T09:12:09.737Z,14900.00
2018-07-10T09:13:09.740Z,15688.00
2018-07-10T09:14:09.743Z,16608.00
2018-07-10T09:15:09.748Z,16640.00
2018-07-10T09:16:09.753Z,16032.00
2018-07-10T09:17:09.757Z,15020.00
2018-07-10T09:18:09.762Z,14516.00
2018-07-10T09:19:09.766Z,14616.00
2018-07-10T09:20:09.771Z,14824.00
2018-07-10T09:21:09.774Z,14740.00
2018-07-10T09:22:09.779Z,14688.00
2018-07-10T09:23:09.799Z,14632.00
2018-07-10T09:24:09.791Z,15460.00
2018-07-10T09:25:09.789Z,15592.00
2018-07-10T09:26:09.794Z,15376.00
2018-07-10T09:27:09.802Z,14800.00
2018-07-10T09:28:09.804Z,14128.00
2018-07-10T09:29:09.810Z,13792.00
2018-07-10T09:30:09.815Z,13976.00
2018-07-10T09:31:09.818Z,14912.00
2018-07-10T09:32:09.825Z,16032.00
2018-07-10T09:33:09.829Z,16896.00
2018-07-10T09:34:09.834Z,18144.00
2018-07-10T09:35:09.839Z,18272.00
2018-07-10T09:36:09.848Z,17696.00
2018-07-10T09:37:09.846Z,17536.00
2018-07-10T09:38:09.889Z,16384.00
2018-07-10T09:39:09.853Z,15852.00
2018-07-10T09:40:09.855Z,14664.00
2018-07-10T09:41:09.864Z,14800.00
2018-07-10T09:42:09.866Z,15644.00
2018-07-10T09:43:09.870Z,16480.00
2018-07-10T09:44:09.922Z,17248.00
2018-07-10T09:45:09.880Z,16736.00
2018-07-10T09:46:09.880Z,15476.00
2018-07-10T09:47:09.889Z,13664.00
2018-07-10T09:48:09.896Z,12904.00
2018-07-10T09:49:09.900Z,12376.00
2018-07-10T09:50:09.902Z,11828.00
2018-07-10T09:51:09.985Z,11548.00
2018-07-10T09:52:09.915Z,10916.00
2018-07-10T09:53:09.952Z,10260.00
2018-07-10T09:54:09.932Z,9792.00
2018-07-10T09:55:09.956Z,9076.00
2018-07-10T09:56:09.929Z,8596.00
2018-07-10T09:57:09.936Z,9132.00
2018-07-10T09:58:09.936Z,9464.00
2018-07-10T09:59:09.942Z,9764.00
2018-07-10T10:00:09.945Z,10320.00
2018-07-10T10:01:09.952Z,10864.00
2018-07-10T10:02:09.957Z,10628.00
2018-07-10T10:03:09.958Z,10532.00
2018-07-10T10:04:09.965Z,10420.00
2018-07-10T10:05:09.969Z,10324.00
2018-07-10T10:06:09.971Z,10020.00
2018-07-10T10:07:09.975Z,9616.00
2018-07-10T10:08:09.978Z,9256.00
2018-07-10T10:09:09.979Z,8832.00
2018-07-10T10:10:09.990Z,8424.00
2018-07-10T10:11:09.990Z,8284.00
2018-07-10T10:12:09.994Z,8064.00
2018-07-10T10:13:09.998Z,7480.00
2018-07-10T10:14:10.004Z,7032.00
2018-07-10T10:15:10.007Z,7188.00
2018-07-10T10:16:10.013Z,7660.00
2018-07-10T10:17:10.012Z,8392.00
2018-07-10T10:18:10.019Z,8560.00
2018-07-10T10:19:10.020Z,8868.00
2018-07-10T10:20:10.024Z,9384.00
2018-07-10T10:21:10.027Z,10152.00
2018-07-10T10:22:10.030Z,10436.00
2018-07-10T10:23:10.033Z,10536.00
2018-07-10T10:24:10.037Z,10432.00
2018-07-10T10:25:10.042Z,10388.00
2018-07-10T10:26:10.054Z,10552.00
2018-07-10T10:27:10.048Z,11048.00
2018-07-10T10:28:10.060Z,11032.00
2018-07-10T10:29:10.053Z,11004.00
2018-07-10T10:30:10.057Z,10740.00
2018-07-10T10:31:10.061Z,10500.00
2018-07-10T10:32:10.062Z,11088.00
2018-07-10T10:33:10.067Z,11500.00
2018-07-10T10:34:10.074Z,11684.00
2018-07-10T10:35:10.074Z,11672.00
2018-07-10T10:36:10.078Z,12196.00
2018-07-10T10:37:10.081Z,12804.00
2018-07-10T10:38:10.085Z,12688.00
2018-07-10T10:39:10.086Z,12788.00
2018-07-10T10:40:10.091Z,12576.00
2018-07-10T10:41:10.092Z,12276.00
2018-07-10T10:42:10.097Z,12076.00
2018-07-10T10:43:10.102Z,11664.00
2018-07-10T10:44:10.108Z,11128.00
2018-07-10T10:45:10.108Z,10800.00
2018-07-10T10:46:10.112Z,10556.00
2018-07-10T10:47:10.115Z,10120.00
2018-07-10T10:48:10.119Z,9628.00
2018-07-10T10:49:10.128Z,9200.00
2018-07-10T10:50:10.127Z,8936.00
2018-07-10T10:51:10.322Z,8712.00
2018-07-10T10:52:10.132Z,8224.00
2018-07-10T10:53:10.139Z,7856.00
2018-07-10T10:54:10.140Z,7532.00
2018-07-10T10:55:10.143Z,7212.00
2018-07-10T10:56:10.146Z,7056.00
2018-07-10T10:57:10.151Z,6992.00
2018-07-10T10:58:10.153Z,6992.00
2018-07-10T10:59:10.160Z,7020.00
2018-07-10T11:00:10.168Z,7160.00
2018-07-10T11:01:10.169Z,7552.00
2018-07-10T11:02:10.169Z,8180.00
2018-07-10T11:03:10.216Z,8988.00
2018-07-10T11:04:10.174Z,9628.00
2018-07-10T11:05:10.179Z,10008.00
2018-07-10T11:06:10.182Z,10200.00
2018-07-10T11:07:10.186Z,10120.00
2018-07-10T11:08:10.189Z,10108.00
2018-07-10T11:09:10.192Z,10388.00
2018-07-10T11:10:10.190Z,10492.00
2018-07-10T11:11:10.196Z,10676.00
2018-07-10T11:12:10.199Z,11020.00
2018-07-10T11:13:10.248Z,11664.00
2018-07-10T11:14:10.207Z,12132.00
2018-07-10T11:15:10.214Z,12220.00
2018-07-10T11:16:10.219Z,12188.00
2018-07-10T11:17:10.919Z,12104.00
2018-07-10T11:18:10.225Z,12052.00
2018-07-10T11:19:10.228Z,12076.00
2018-07-10T11:20:10.230Z,12212.00
2018-07-10T11:21:10.238Z,12472.00
2018-07-10T11:22:10.244Z,12720.00
2018-07-10T11:23:10.242Z,12692.00
2018-07-10T11:24:10.252Z,12564.00
2018-07-10T11:25:10.251Z,12556.00
2018-07-10T11:26:10.253Z,12204.00
2018-07-10T11:27:10.257Z,11584.00
2018-07-10T11:28:10.259Z,11056.00
2018-07-10T11:29:10.263Z,10536.00
2018-07-10T11:30:10.269Z,9956.00
2018-07-10T11:31:10.274Z,9448.00
2018-07-10T11:32:10.280Z,8948.00
2018-07-10T11:33:10.279Z,8396.00
2018-07-10T11:34:10.282Z,7904.00
2018-07-10T11:35:10.285Z,7352.00
2018-07-10T11:36:10.289Z,7000.00
2018-07-10T11:37:10.292Z,6756.00
2018-07-10T11:38:10.293Z,6492.00
2018-07-10T11:39:10.373Z,6356.00
2018-07-10T11:40:10.304Z,6440.00
2018-07-10T11:41:10.306Z,6600.00
2018-07-10T11:42:10.308Z,6848.00
2018-07-10T11:43:10.310Z,7080.00
2018-07-10T11:44:10.308Z,7568.00
2018-07-10T11:45:10.316Z,8648.00
2018-07-10T11:46:10.323Z,9672.00
2018-07-10T11:47:10.322Z,10644.00
2018-07-10T11:48:10.329Z,11384.00
2018-07-10T11:49:10.441Z,11832.00
2018-07-10T11:50:10.332Z,12428.00
2018-07-10T11:51:10.333Z,13140.00
2018-07-10T11:52:10.339Z,13748.00
2018-07-10T11:53:10.362Z,14664.00
2018-07-10T11:54:10.344Z,15116.00
2018-07-10T11:55:10.348Z,15068.00
2018-07-10T11:56:10.358Z,14484.00
2018-07-10T11:57:10.361Z,13728.00
2018-07-10T11:58:10.357Z,12860.00
2018-07-10T11:59:10.359Z,12224.00
2018-07-10T12:00:10.367Z,11308.00
2018-07-10T12:01:10.372Z,10804.00
2018-07-10T12:02:10.366Z,10948.00
2018-07-10T12:03:10.373Z,11880.00
2018-07-10T12:04:10.375Z,11620.00
2018-07-10T12:05:10.383Z,11300.00
2018-07-10T12:06:10.384Z,12272.00
2018-07-10T12:07:10.388Z,13100.00
2018-07-10T12:08:10.391Z,13176.00
2018-07-10T12:09:10.396Z,12888.00
2018-07-10T12:10:10.398Z,13128.00
2018-07-10T12:11:10.489Z,13672.00
2018-07-10T12:12:10.403Z,13312.00
2018-07-10T12:13:10.406Z,12296.00
2018-07-10T12:14:10.413Z,11496.00
2018-07-10T12:15:10.415Z,10832.00
2018-07-10T12:16:10.421Z,10520.00